sensor_id;sensor_type;location;lat;lon;timestamp;P1;durP1;ratioP1;P2;durP2;ratioP2
58017;SDS011;43810;50.860;19.226;2022-11-24T00:00:50;36.35;;;13.73;;
58017;SDS011;43810;50.860;19.226;2022-11-24T00:03:24;40.70;;;16.65;;
58017;SDS011;43810;50.860;19.226;2022-11-24T00:05:50;40.38;;;17.17;;
58017;SDS011;43810;50.860;19.226;2022-11-24T00:08:16;35.42;;;15.05;;
58017;SDS011;43810;50.860;19.226;2022-11-24T00:10:42;40.65;;;17.60;;
58017;SDS011;43810;50.860;19.226;2022-11-24T00:13:08;42.97;;;16.40;;
58017;SDS011;43810;50.860;19.226;2022-11-24T00:15:34;47.95;;;18.10;;
58017;SDS011;43810;50.860;19.226;2022-11-24T00:17:59;37.22;;;14.88;;
58017;SDS011;43810;50.860;19.226;2022-11-24T00:20:25;39.40;;;16.27;;
58017;SDS011;43810;50.860;19.226;2022-11-24T00:22:51;37.92;;;14.93;;
58017;SDS011;43810;50.860;19.226;2022-11-24T00:25:17;37.15;;;14.35;;
58017;SDS011;43810;50.860;19.226;2022-11-24T00:27:42;43.17;;;16.02;;
58017;SDS011;43810;50.860;19.226;2022-11-24T00:30:08;38.40;;;14.10;;
58017;SDS011;43810;50.860;19.226;2022-11-24T00:32:34;40.72;;;14.57;;
58017;SDS011;43810;50.860;19.226;2022-11-24T00:35:00;44.20;;;17.23;;
58017;SDS011;43810;50.860;19.226;2022-11-24T00:37:25;50.28;;;17.33;;
58017;SDS011;43810;50.860;19.226;2022-11-24T00:39:51;44.00;;;16.48;;
58017;SDS011;43810;50.860;19.226;2022-11-24T00:42:16;40.55;;;15.93;;
58017;SDS011;43810;50.860;19.226;2022-11-24T00:44:43;39.60;;;16.33;;
58017;SDS011;43810;50.860;19.226;2022-11-24T00:47:08;36.50;;;15.70;;
58017;SDS011;43810;50.860;19.226;2022-11-24T00:49:34;41.70;;;15.48;;
58017;SDS011;43810;50.860;19.226;2022-11-24T00:52:00;36.53;;;14.50;;
58017;SDS011;43810;50.860;19.226;2022-11-24T00:54:26;32.35;;;13.88;;
58017;SDS011;43810;50.860;19.226;2022-11-24T00:56:52;33.67;;;13.38;;
58017;SDS011;43810;50.860;19.226;2022-11-24T00:59:17;38.80;;;14.98;;
58017;SDS011;43810;50.860;19.226;2022-11-24T01:01:43;38.55;;;14.07;;
58017;SDS011;43810;50.860;19.226;2022-11-24T01:04:09;38.38;;;15.00;;
58017;SDS011;43810;50.860;19.226;2022-11-24T01:06:34;34.88;;;13.27;;
58017;SDS011;43810;50.860;19.226;2022-11-24T01:09:01;38.22;;;14.13;;
58017;SDS011;43810;50.860;19.226;2022-11-24T01:11:34;34.58;;;12.60;;
58017;SDS011;43810;50.860;19.226;2022-11-24T01:14:20;35.10;;;13.57;;
58017;SDS011;43810;50.860;19.226;2022-11-24T01:16:46;26.70;;;12.20;;
58017;SDS011;43810;50.860;19.226;2022-11-24T01:19:12;40.40;;;14.18;;
58017;SDS011;43810;50.860;19.226;2022-11-24T01:21:38;33.00;;;14.07;;
58017;SDS011;43810;50.860;19.226;2022-11-24T01:24:04;31.98;;;13.20;;
58017;SDS011;43810;50.860;19.226;2022-11-24T01:26:30;36.63;;;15.30;;
58017;SDS011;43810;50.860;19.226;2022-11-24T01:28:56;38.47;;;14.68;;
58017;SDS011;43810;50.860;19.226;2022-11-24T01:31:23;35.97;;;13.75;;
58017;SDS011;43810;50.860;19.226;2022-11-24T01:33:51;36.17;;;15.38;;
58017;SDS011;43810;50.860;19.226;2022-11-24T01:36:17;39.10;;;17.10;;
58017;SDS011;43810;50.860;19.226;2022-11-24T01:38:43;37.03;;;14.65;;
58017;SDS011;43810;50.860;19.226;2022-11-24T01:41:12;38.13;;;13.23;;
58017;SDS011;43810;50.860;19.226;2022-11-24T01:43:41;32.75;;;13.07;;
58017;SDS011;43810;50.860;19.226;2022-11-24T01:51:37;33.10;;;13.15;;
58017;SDS011;43810;50.860;19.226;2022-11-24T01:54:08;37.35;;;13.88;;
58017;SDS011;43810;50.860;19.226;2022-11-24T01:56:39;35.47;;;15.25;;
58017;SDS011;43810;50.860;19.226;2022-11-24T01:59:09;37.35;;;14.45;;
58017;SDS011;43810;50.860;19.226;2022-11-24T02:01:38;41.35;;;15.57;;
58017;SDS011;43810;50.860;19.226;2022-11-24T02:04:05;40.70;;;18.50;;
58017;SDS011;43810;50.860;19.226;2022-11-24T02:06:35;43.25;;;17.05;;
58017;SDS011;43810;50.860;19.226;2022-11-24T02:09:10;50.55;;;17.50;;
58017;SDS011;43810;50.860;19.226;2022-11-24T02:11:40;45.92;;;17.75;;
58017;SDS011;43810;50.860;19.226;2022-11-24T02:14:09;35.15;;;15.48;;
58017;SDS011;43810;50.860;19.226;2022-11-24T02:16:37;48.42;;;18.20;;
58017;SDS011;43810;50.860;19.226;2022-11-24T02:19:07;44.25;;;16.10;;
58017;SDS011;43810;50.860;19.226;2022-11-24T02:21:58;34.58;;;13.98;;
58017;SDS011;43810;50.860;19.226;2022-11-24T02:24:34;38.70;;;13.95;;
58017;SDS011;43810;50.860;19.226;2022-11-24T02:27:05;39.67;;;15.80;;
58017;SDS011;43810;50.860;19.226;2022-11-24T02:29:31;36.72;;;15.55;;
58017;SDS011;43810;50.860;19.226;2022-11-24T02:31:58;34.22;;;14.77;;
58017;SDS011;43810;50.860;19.226;2022-11-24T02:34:26;37.40;;;15.25;;
58017;SDS011;43810;50.860;19.226;2022-11-24T02:36:52;37.65;;;15.40;;
58017;SDS011;43810;50.860;19.226;2022-11-24T02:39:18;44.55;;;16.83;;
58017;SDS011;43810;50.860;19.226;2022-11-24T02:41:45;42.85;;;16.05;;
58017;SDS011;43810;50.860;19.226;2022-11-24T02:44:19;50.20;;;16.65;;
58017;SDS011;43810;50.860;19.226;2022-11-24T02:46:48;41.25;;;15.57;;
58017;SDS011;43810;50.860;19.226;2022-11-24T02:49:14;50.80;;;17.08;;
58017;SDS011;43810;50.860;19.226;2022-11-24T02:51:40;37.70;;;14.63;;
58017;SDS011;43810;50.860;19.226;2022-11-24T02:54:06;40.60;;;15.68;;
58017;SDS011;43810;50.860;19.226;2022-11-24T02:56:31;42.80;;;14.63;;
58017;SDS011;43810;50.860;19.226;2022-11-24T02:58:57;35.95;;;14.73;;
58017;SDS011;43810;50.860;19.226;2022-11-24T03:01:23;42.38;;;15.05;;
58017;SDS011;43810;50.860;19.226;2022-11-24T03:03:49;39.03;;;14.05;;
58017;SDS011;43810;50.860;19.226;2022-11-24T03:06:14;44.38;;;14.13;;
58017;SDS011;43810;50.860;19.226;2022-11-24T03:08:40;46.15;;;16.23;;
58017;SDS011;43810;50.860;19.226;2022-11-24T03:11:05;39.63;;;15.20;;
58017;SDS011;43810;50.860;19.226;2022-11-24T03:13:31;39.00;;;15.48;;
58017;SDS011;43810;50.860;19.226;2022-11-24T03:15:57;40.60;;;15.15;;
58017;SDS011;43810;50.860;19.226;2022-11-24T03:18:23;39.38;;;15.52;;
58017;SDS011;43810;50.860;19.226;2022-11-24T03:20:49;43.55;;;17.20;;
58017;SDS011;43810;50.860;19.226;2022-11-24T03:23:14;43.08;;;15.00;;
58017;SDS011;43810;50.860;19.226;2022-11-24T03:25:40;36.20;;;14.30;;
58017;SDS011;43810;50.860;19.226;2022-11-24T03:28:06;44.03;;;15.38;;
58017;SDS011;43810;50.860;19.226;2022-11-24T03:30:31;39.47;;;14.07;;
58017;SDS011;43810;50.860;19.226;2022-11-24T03:32:57;39.00;;;14.30;;
58017;SDS011;43810;50.860;19.226;2022-11-24T03:35:23;57.92;;;16.50;;
58017;SDS011;43810;50.860;19.226;2022-11-24T03:37:50;67.95;;;18.38;;
58017;SDS011;43810;50.860;19.226;2022-11-24T03:40:16;63.00;;;19.23;;
58017;SDS011;43810;50.860;19.226;2022-11-24T03:42:42;42.15;;;14.35;;
58017;SDS011;43810;50.860;19.226;2022-11-24T03:45:08;48.67;;;16.00;;
58017;SDS011;43810;50.860;19.226;2022-11-24T03:47:34;44.45;;;15.57;;
58017;SDS011;43810;50.860;19.226;2022-11-24T03:49:59;34.67;;;14.75;;
58017;SDS011;43810;50.860;19.226;2022-11-24T03:52:25;41.75;;;13.20;;
58017;SDS011;43810;50.860;19.226;2022-11-24T03:54:51;40.20;;;14.77;;
58017;SDS011;43810;50.860;19.226;2022-11-24T03:57:17;39.03;;;14.68;;
58017;SDS011;43810;50.860;19.226;2022-11-24T03:59:43;46.40;;;15.30;;
58017;SDS011;43810;50.860;19.226;2022-11-24T04:02:09;47.92;;;15.57;;
58017;SDS011;43810;50.860;19.226;2022-11-24T04:04:35;42.10;;;15.85;;
58017;SDS011;43810;50.860;19.226;2022-11-24T04:07:00;48.80;;;15.77;;
58017;SDS011;43810;50.860;19.226;2022-11-24T04:09:26;49.88;;;16.67;;
58017;SDS011;43810;50.860;19.226;2022-11-24T04:11:52;51.67;;;16.08;;
58017;SDS011;43810;50.860;19.226;2022-11-24T04:14:36;53.65;;;17.10;;
58017;SDS011;43810;50.860;19.226;2022-11-24T04:17:02;42.17;;;14.73;;
58017;SDS011;43810;50.860;19.226;2022-11-24T04:19:29;47.88;;;15.60;;
58017;SDS011;43810;50.860;19.226;2022-11-24T04:21:55;42.05;;;14.98;;
58017;SDS011;43810;50.860;19.226;2022-11-24T04:24:20;42.22;;;14.50;;
58017;SDS011;43810;50.860;19.226;2022-11-24T04:26:46;46.42;;;15.18;;
58017;SDS011;43810;50.860;19.226;2022-11-24T04:29:12;40.95;;;13.85;;
58017;SDS011;43810;50.860;19.226;2022-11-24T04:31:37;41.95;;;14.07;;
58017;SDS011;43810;50.860;19.226;2022-11-24T04:34:03;38.70;;;13.23;;
58017;SDS011;43810;50.860;19.226;2022-11-24T04:36:29;37.20;;;13.45;;
58017;SDS011;43810;50.860;19.226;2022-11-24T04:38:55;41.60;;;14.60;;
58017;SDS011;43810;50.860;19.226;2022-11-24T04:41:21;36.20;;;12.80;;
58017;SDS011;43810;50.860;19.226;2022-11-24T04:43:49;46.10;;;14.40;;
58017;SDS011;43810;50.860;19.226;2022-11-24T04:46:15;39.85;;;13.88;;
58017;SDS011;43810;50.860;19.226;2022-11-24T04:48:41;34.35;;;11.77;;
58017;SDS011;43810;50.860;19.226;2022-11-24T04:51:06;31.85;;;13.10;;
58017;SDS011;43810;50.860;19.226;2022-11-24T04:53:32;36.03;;;13.65;;
58017;SDS011;43810;50.860;19.226;2022-11-24T04:55:58;28.67;;;11.52;;
58017;SDS011;43810;50.860;19.226;2022-11-24T04:58:23;23.58;;;11.20;;
58017;SDS011;43810;50.860;19.226;2022-11-24T05:00:49;35.47;;;12.32;;
58017;SDS011;43810;50.860;19.226;2022-11-24T05:03:14;26.45;;;13.02;;
58017;SDS011;43810;50.860;19.226;2022-11-24T05:05:40;28.73;;;11.70;;
58017;SDS011;43810;50.860;19.226;2022-11-24T05:08:06;27.98;;;11.80;;
58017;SDS011;43810;50.860;19.226;2022-11-24T05:10:33;23.73;;;10.50;;
58017;SDS011;43810;50.860;19.226;2022-11-24T05:13:05;28.45;;;11.40;;
58017;SDS011;43810;50.860;19.226;2022-11-24T05:15:38;28.90;;;12.00;;
58017;SDS011;43810;50.860;19.226;2022-11-24T05:18:09;33.95;;;12.45;;
58017;SDS011;43810;50.860;19.226;2022-11-24T05:20:37;28.20;;;11.68;;
58017;SDS011;43810;50.860;19.226;2022-11-24T05:23:04;30.48;;;10.93;;
58017;SDS011;43810;50.860;19.226;2022-11-24T05:25:31;25.65;;;11.18;;
58017;SDS011;43810;50.860;19.226;2022-11-24T05:27:58;27.92;;;10.90;;
58017;SDS011;43810;50.860;19.226;2022-11-24T05:30:27;27.98;;;10.93;;
58017;SDS011;43810;50.860;19.226;2022-11-24T05:32:53;27.40;;;12.38;;
58017;SDS011;43810;50.860;19.226;2022-11-24T05:35:19;23.25;;;10.63;;
58017;SDS011;43810;50.860;19.226;2022-11-24T05:37:45;27.35;;;11.48;;
58017;SDS011;43810;50.860;19.226;2022-11-24T05:40:12;33.75;;;12.27;;
58017;SDS011;43810;50.860;19.226;2022-11-24T05:42:38;31.05;;;12.93;;
58017;SDS011;43810;50.860;19.226;2022-11-24T05:45:08;30.58;;;13.77;;
58017;SDS011;43810;50.860;19.226;2022-11-24T05:47:36;30.42;;;11.77;;
58017;SDS011;43810;50.860;19.226;2022-11-24T05:50:03;27.70;;;12.55;;
58017;SDS011;43810;50.860;19.226;2022-11-24T05:52:29;30.92;;;12.73;;
58017;SDS011;43810;50.860;19.226;2022-11-24T05:54:55;25.88;;;11.85;;
58017;SDS011;43810;50.860;19.226;2022-11-24T05:57:21;29.98;;;12.10;;
58017;SDS011;43810;50.860;19.226;2022-11-24T05:59:47;28.05;;;11.02;;
58017;SDS011;43810;50.860;19.226;2022-11-24T06:02:12;33.83;;;13.73;;
58017;SDS011;43810;50.860;19.226;2022-11-24T06:04:38;32.78;;;10.43;;
58017;SDS011;43810;50.860;19.226;2022-11-24T06:07:08;27.88;;;12.60;;
58017;SDS011;43810;50.860;19.226;2022-11-24T06:09:36;33.45;;;12.48;;
58017;SDS011;43810;50.860;19.226;2022-11-24T06:12:02;29.20;;;14.63;;
58017;SDS011;43810;50.860;19.226;2022-11-24T06:14:29;30.20;;;13.10;;
58017;SDS011;43810;50.860;19.226;2022-11-24T06:16:54;36.75;;;13.55;;
58017;SDS011;43810;50.860;19.226;2022-11-24T06:19:20;36.42;;;12.98;;
58017;SDS011;43810;50.860;19.226;2022-11-24T06:21:46;35.00;;;13.38;;
58017;SDS011;43810;50.860;19.226;2022-11-24T06:24:12;44.58;;;18.13;;
58017;SDS011;43810;50.860;19.226;2022-11-24T06:26:39;34.95;;;17.38;;
58017;SDS011;43810;50.860;19.226;2022-11-24T06:29:05;27.10;;;12.20;;
58017;SDS011;43810;50.860;19.226;2022-11-24T06:31:30;30.77;;;11.55;;
58017;SDS011;43810;50.860;19.226;2022-11-24T06:33:57;24.75;;;11.10;;
58017;SDS011;43810;50.860;19.226;2022-11-24T06:36:23;29.38;;;11.50;;
58017;SDS011;43810;50.860;19.226;2022-11-24T06:38:50;29.15;;;12.43;;
58017;SDS011;43810;50.860;19.226;2022-11-24T06:41:16;31.48;;;11.60;;
58017;SDS011;43810;50.860;19.226;2022-11-24T06:43:43;30.17;;;12.95;;
58017;SDS011;43810;50.860;19.226;2022-11-24T06:46:09;34.22;;;14.48;;
58017;SDS011;43810;50.860;19.226;2022-11-24T06:48:35;27.60;;;12.05;;
58017;SDS011;43810;50.860;19.226;2022-11-24T06:51:02;25.02;;;9.85;;
58017;SDS011;43810;50.860;19.226;2022-11-24T06:53:31;28.58;;;10.57;;
58017;SDS011;43810;50.860;19.226;2022-11-24T06:56:03;29.73;;;11.00;;
58017;SDS011;43810;50.860;19.226;2022-11-24T06:58:31;22.42;;;9.57;;
58017;SDS011;43810;50.860;19.226;2022-11-24T07:00:56;24.50;;;10.18;;
58017;SDS011;43810;50.860;19.226;2022-11-24T07:03:22;27.05;;;10.77;;
58017;SDS011;43810;50.860;19.226;2022-11-24T07:05:48;21.80;;;10.35;;
58017;SDS011;43810;50.860;19.226;2022-11-24T07:08:14;23.73;;;9.75;;
58017;SDS011;43810;50.860;19.226;2022-11-24T07:10:39;24.88;;;11.18;;
58017;SDS011;43810;50.860;19.226;2022-11-24T07:13:06;22.85;;;9.48;;
58017;SDS011;43810;50.860;19.226;2022-11-24T07:15:32;24.40;;;10.65;;
58017;SDS011;43810;50.860;19.226;2022-11-24T07:17:58;25.17;;;12.35;;
58017;SDS011;43810;50.860;19.226;2022-11-24T07:20:24;23.25;;;10.50;;
58017;SDS011;43810;50.860;19.226;2022-11-24T07:22:53;28.10;;;11.93;;
58017;SDS011;43810;50.860;19.226;2022-11-24T07:25:20;25.00;;;10.48;;
58017;SDS011;43810;50.860;19.226;2022-11-24T07:27:46;25.42;;;10.85;;
58017;SDS011;43810;50.860;19.226;2022-11-24T07:30:12;33.38;;;12.77;;
58017;SDS011;43810;50.860;19.226;2022-11-24T07:32:37;29.38;;;11.50;;
58017;SDS011;43810;50.860;19.226;2022-11-24T07:35:03;23.58;;;11.02;;
58017;SDS011;43810;50.860;19.226;2022-11-24T07:37:29;31.25;;;14.48;;
58017;SDS011;43810;50.860;19.226;2022-11-24T07:39:55;28.85;;;13.38;;
58017;SDS011;43810;50.860;19.226;2022-11-24T07:42:21;26.45;;;11.15;;
58017;SDS011;43810;50.860;19.226;2022-11-24T07:44:46;26.40;;;11.07;;
58017;SDS011;43810;50.860;19.226;2022-11-24T07:47:12;26.05;;;11.80;;
58017;SDS011;43810;50.860;19.226;2022-11-24T07:49:37;33.90;;;12.57;;
58017;SDS011;43810;50.860;19.226;2022-11-24T07:52:03;27.40;;;12.07;;
58017;SDS011;43810;50.860;19.226;2022-11-24T13:09:21;42.75;;;15.50;;
58017;SDS011;43810;50.860;19.226;2022-11-24T13:11:47;36.75;;;16.40;;
58017;SDS011;43810;50.860;19.226;2022-11-24T13:17:32;38.25;;;15.55;;
58017;SDS011;43810;50.860;19.226;2022-11-24T13:20:12;33.38;;;14.65;;
58017;SDS011;43810;50.860;19.226;2022-11-24T13:22:38;31.15;;;14.18;;
58017;SDS011;43810;50.860;19.226;2022-11-24T13:25:11;38.63;;;20.17;;
58017;SDS011;43810;50.860;19.226;2022-11-24T13:27:41;34.22;;;16.23;;
58017;SDS011;43810;50.860;19.226;2022-11-24T13:33:01;35.88;;;15.18;;
58017;SDS011;43810;50.860;19.226;2022-11-24T13:35:40;33.38;;;15.25;;
58017;SDS011;43810;50.860;19.226;2022-11-24T13:38:49;27.63;;;14.27;;
58017;SDS011;43810;50.860;19.226;2022-11-24T13:49:21;42.05;;;17.00;;
58017;SDS011;43810;50.860;19.226;2022-11-24T13:51:47;38.85;;;16.80;;
58017;SDS011;43810;50.860;19.226;2022-11-24T13:54:13;31.00;;;14.88;;
58017;SDS011;43810;50.860;19.226;2022-11-24T13:56:39;39.40;;;15.20;;
58017;SDS011;43810;50.860;19.226;2022-11-24T13:59:25;34.13;;;14.70;;
58017;SDS011;43810;50.860;19.226;2022-11-24T14:04:24;37.25;;;14.48;;
58017;SDS011;43810;50.860;19.226;2022-11-24T14:12:05;49.35;;;23.63;;
58017;SDS011;43810;50.860;19.226;2022-11-24T14:14:37;38.25;;;17.35;;
58017;SDS011;43810;50.860;19.226;2022-11-24T14:17:25;38.13;;;15.18;;
58017;SDS011;43810;50.860;19.226;2022-11-24T14:19:53;44.85;;;19.70;;
58017;SDS011;43810;50.860;19.226;2022-11-24T14:25:04;40.90;;;19.30;;
58017;SDS011;43810;50.860;19.226;2022-11-24T14:27:35;85.55;;;37.58;;
58017;SDS011;43810;50.860;19.226;2022-11-24T14:32:38;79.03;;;28.67;;
58017;SDS011;43810;50.860;19.226;2022-11-24T14:35:23;68.35;;;30.80;;
58017;SDS011;43810;50.860;19.226;2022-11-24T14:37:54;232.18;;;83.68;;
58017;SDS011;43810;50.860;19.226;2022-11-24T14:43:11;53.58;;;22.70;;
58017;SDS011;43810;50.860;19.226;2022-11-24T14:45:58;53.70;;;19.00;;
58017;SDS011;43810;50.860;19.226;2022-11-24T14:48:28;52.80;;;20.77;;
58017;SDS011;43810;50.860;19.226;2022-11-24T14:51:47;66.93;;;24.38;;
58017;SDS011;43810;50.860;19.226;2022-11-24T14:53:55;61.78;;;25.75;;
58017;SDS011;43810;50.860;19.226;2022-11-24T14:56:54;65.25;;;25.90;;
58017;SDS011;43810;50.860;19.226;2022-11-24T14:59:24;47.13;;;18.70;;
58017;SDS011;43810;50.860;19.226;2022-11-24T15:01:51;52.85;;;21.40;;
58017;SDS011;43810;50.860;19.226;2022-11-24T15:04:18;50.40;;;23.23;;
58017;SDS011;43810;50.860;19.226;2022-11-24T15:06:48;55.92;;;24.52;;
58017;SDS011;43810;50.860;19.226;2022-11-24T15:12:06;74.40;;;30.98;;
58017;SDS011;43810;50.860;19.226;2022-11-24T15:14:39;72.75;;;29.73;;
58017;SDS011;43810;50.860;19.226;2022-11-24T15:17:20;77.03;;;29.52;;
58017;SDS011;43810;50.860;19.226;2022-11-24T15:19:51;65.00;;;27.60;;
58017;SDS011;43810;50.860;19.226;2022-11-24T15:24:53;49.78;;;22.15;;
58017;SDS011;43810;50.860;19.226;2022-11-24T15:27:19;47.50;;;20.20;;
58017;SDS011;43810;50.860;19.226;2022-11-24T15:29:45;54.28;;;22.13;;
58017;SDS011;43810;50.860;19.226;2022-11-24T15:32:13;57.88;;;23.83;;
58017;SDS011;43810;50.860;19.226;2022-11-24T15:34:40;58.08;;;24.35;;
58017;SDS011;43810;50.860;19.226;2022-11-24T15:37:07;60.10;;;25.35;;
58017;SDS011;43810;50.860;19.226;2022-11-24T15:39:33;67.88;;;28.83;;
58017;SDS011;43810;50.860;19.226;2022-11-24T15:41:59;83.57;;;32.20;;
58017;SDS011;43810;50.860;19.226;2022-11-24T15:44:25;86.80;;;34.90;;
58017;SDS011;43810;50.860;19.226;2022-11-24T15:46:51;91.95;;;37.20;;
58017;SDS011;43810;50.860;19.226;2022-11-24T15:49:17;80.85;;;33.85;;
58017;SDS011;43810;50.860;19.226;2022-11-24T15:51:43;75.68;;;31.17;;
58017;SDS011;43810;50.860;19.226;2022-11-24T15:54:11;76.32;;;30.85;;
58017;SDS011;43810;50.860;19.226;2022-11-24T15:56:40;75.47;;;31.20;;
58017;SDS011;43810;50.860;19.226;2022-11-24T15:59:09;80.75;;;33.17;;
58017;SDS011;43810;50.860;19.226;2022-11-24T16:01:39;93.20;;;34.72;;
58017;SDS011;43810;50.860;19.226;2022-11-24T16:04:06;89.82;;;36.25;;
58017;SDS011;43810;50.860;19.226;2022-11-24T16:06:31;84.90;;;35.58;;
58017;SDS011;43810;50.860;19.226;2022-11-24T16:08:57;76.35;;;32.97;;
58017;SDS011;43810;50.860;19.226;2022-11-24T16:11:23;90.32;;;35.67;;
58017;SDS011;43810;50.860;19.226;2022-11-24T16:13:49;85.13;;;36.03;;
58017;SDS011;43810;50.860;19.226;2022-11-24T16:16:15;79.05;;;33.88;;
58017;SDS011;43810;50.860;19.226;2022-11-24T16:18:41;91.07;;;36.90;;
58017;SDS011;43810;50.860;19.226;2022-11-24T16:21:09;78.00;;;35.13;;
58017;SDS011;43810;50.860;19.226;2022-11-24T16:23:35;93.90;;;37.40;;
58017;SDS011;43810;50.860;19.226;2022-11-24T16:26:04;78.97;;;33.95;;
58017;SDS011;43810;50.860;19.226;2022-11-24T16:28:31;108.78;;;40.90;;
58017;SDS011;43810;50.860;19.226;2022-11-24T16:30:56;104.25;;;42.35;;
58017;SDS011;43810;50.860;19.226;2022-11-24T16:33:22;141.65;;;55.17;;
58017;SDS011;43810;50.860;19.226;2022-11-24T16:35:48;117.88;;;47.45;;
58017;SDS011;43810;50.860;19.226;2022-11-24T16:38:15;112.85;;;41.17;;
58017;SDS011;43810;50.860;19.226;2022-11-24T16:40:44;94.00;;;40.60;;
58017;SDS011;43810;50.860;19.226;2022-11-24T16:43:18;84.32;;;33.83;;
58017;SDS011;43810;50.860;19.226;2022-11-24T16:45:44;88.57;;;34.33;;
58017;SDS011;43810;50.860;19.226;2022-11-24T16:48:10;88.88;;;36.22;;
58017;SDS011;43810;50.860;19.226;2022-11-24T16:50:36;83.55;;;33.97;;
58017;SDS011;43810;50.860;19.226;2022-11-24T16:53:02;92.18;;;35.38;;
58017;SDS011;43810;50.860;19.226;2022-11-24T16:55:28;73.75;;;30.65;;
58017;SDS011;43810;50.860;19.226;2022-11-24T16:57:53;77.45;;;30.38;;
58017;SDS011;43810;50.860;19.226;2022-11-24T17:00:20;64.80;;;27.90;;
58017;SDS011;43810;50.860;19.226;2022-11-24T17:02:46;80.07;;;30.23;;
58017;SDS011;43810;50.860;19.226;2022-11-24T17:05:11;79.40;;;32.83;;
58017;SDS011;43810;50.860;19.226;2022-11-24T17:07:37;78.32;;;33.08;;
58017;SDS011;43810;50.860;19.226;2022-11-24T17:10:03;85.10;;;32.63;;
58017;SDS011;43810;50.860;19.226;2022-11-24T17:12:30;79.45;;;31.45;;
58017;SDS011;43810;50.860;19.226;2022-11-24T17:14:56;92.55;;;34.65;;
58017;SDS011;43810;50.860;19.226;2022-11-24T17:17:21;97.10;;;36.85;;
58017;SDS011;43810;50.860;19.226;2022-11-24T17:19:47;95.22;;;38.42;;
58017;SDS011;43810;50.860;19.226;2022-11-24T17:22:13;81.65;;;33.88;;
58017;SDS011;43810;50.860;19.226;2022-11-24T17:24:38;82.93;;;36.25;;
58017;SDS011;43810;50.860;19.226;2022-11-24T17:27:04;93.53;;;38.58;;
58017;SDS011;43810;50.860;19.226;2022-11-24T17:29:30;107.30;;;42.17;;
58017;SDS011;43810;50.860;19.226;2022-11-24T17:31:56;104.38;;;42.33;;
58017;SDS011;43810;50.860;19.226;2022-11-24T17:34:21;106.15;;;44.83;;
58017;SDS011;43810;50.860;19.226;2022-11-24T17:36:47;100.50;;;44.40;;
58017;SDS011;43810;50.860;19.226;2022-11-24T17:39:13;95.57;;;45.33;;
58017;SDS011;43810;50.860;19.226;2022-11-24T17:41:38;105.25;;;42.80;;
58017;SDS011;43810;50.860;19.226;2022-11-24T17:44:04;97.35;;;37.90;;
58017;SDS011;43810;50.860;19.226;2022-11-24T17:46:33;85.53;;;33.95;;
58017;SDS011;43810;50.860;19.226;2022-11-24T17:48:58;85.50;;;33.97;;
58017;SDS011;43810;50.860;19.226;2022-11-24T17:51:25;88.05;;;35.80;;
58017;SDS011;43810;50.860;19.226;2022-11-24T17:53:52;82.55;;;33.15;;
58017;SDS011;43810;50.860;19.226;2022-11-24T17:56:20;80.78;;;32.33;;
58017;SDS011;43810;50.860;19.226;2022-11-24T17:58:48;82.05;;;32.03;;
58017;SDS011;43810;50.860;19.226;2022-11-24T18:01:18;65.25;;;27.58;;
58017;SDS011;43810;50.860;19.226;2022-11-24T18:03:44;70.80;;;30.08;;
58017;SDS011;43810;50.860;19.226;2022-11-24T18:06:10;66.30;;;30.23;;
58017;SDS011;43810;50.860;19.226;2022-11-24T18:08:39;70.20;;;31.17;;
58017;SDS011;43810;50.860;19.226;2022-11-24T18:11:09;93.93;;;38.75;;
58017;SDS011;43810;50.860;19.226;2022-11-24T18:13:35;91.45;;;36.63;;
58017;SDS011;43810;50.860;19.226;2022-11-24T18:16:02;90.95;;;35.70;;
58017;SDS011;43810;50.860;19.226;2022-11-24T18:18:30;90.38;;;38.92;;
58017;SDS011;43810;50.860;19.226;2022-11-24T18:20:56;126.63;;;48.30;;
58017;SDS011;43810;50.860;19.226;2022-11-24T18:23:24;121.13;;;46.17;;
58017;SDS011;43810;50.860;19.226;2022-11-24T18:25:57;112.15;;;42.58;;
58017;SDS011;43810;50.860;19.226;2022-11-24T18:28:24;119.50;;;45.05;;
58017;SDS011;43810;50.860;19.226;2022-11-24T18:30:51;116.65;;;44.35;;
58017;SDS011;43810;50.860;19.226;2022-11-24T18:33:17;116.95;;;46.22;;
58017;SDS011;43810;50.860;19.226;2022-11-24T18:35:53;104.65;;;42.60;;
58017;SDS011;43810;50.860;19.226;2022-11-24T18:38:23;125.72;;;49.08;;
58017;SDS011;43810;50.860;19.226;2022-11-24T18:40:53;108.00;;;40.75;;
58017;SDS011;43810;50.860;19.226;2022-11-24T18:43:19;105.88;;;42.85;;
58017;SDS011;43810;50.860;19.226;2022-11-24T18:45:46;116.95;;;42.97;;
58017;SDS011;43810;50.860;19.226;2022-11-24T18:48:12;104.97;;;40.03;;
58017;SDS011;43810;50.860;19.226;2022-11-24T18:50:38;87.93;;;35.03;;
58017;SDS011;43810;50.860;19.226;2022-11-24T18:53:04;95.93;;;38.40;;
58017;SDS011;43810;50.860;19.226;2022-11-24T18:55:30;102.50;;;36.80;;
58017;SDS011;43810;50.860;19.226;2022-11-24T18:57:56;83.70;;;33.03;;
58017;SDS011;43810;50.860;19.226;2022-11-24T19:00:22;87.78;;;34.22;;
58017;SDS011;43810;50.860;19.226;2022-11-24T19:02:51;96.13;;;36.55;;
58017;SDS011;43810;50.860;19.226;2022-11-24T19:05:18;92.78;;;37.50;;
58017;SDS011;43810;50.860;19.226;2022-11-24T19:07:44;106.78;;;41.38;;
58017;SDS011;43810;50.860;19.226;2022-11-24T19:10:10;102.43;;;40.63;;
58017;SDS011;43810;50.860;19.226;2022-11-24T19:12:36;103.68;;;41.40;;
58017;SDS011;43810;50.860;19.226;2022-11-24T19:15:02;104.18;;;40.28;;
58017;SDS011;43810;50.860;19.226;2022-11-24T19:17:28;114.82;;;44.55;;
58017;SDS011;43810;50.860;19.226;2022-11-24T19:19:54;116.30;;;46.50;;
58017;SDS011;43810;50.860;19.226;2022-11-24T19:22:19;134.20;;;44.63;;
58017;SDS011;43810;50.860;19.226;2022-11-24T19:24:45;138.07;;;45.63;;
58017;SDS011;43810;50.860;19.226;2022-11-24T19:27:11;138.38;;;45.78;;
58017;SDS011;43810;50.860;19.226;2022-11-24T19:29:39;123.97;;;42.42;;
58017;SDS011;43810;50.860;19.226;2022-11-24T19:32:04;104.85;;;38.25;;
58017;SDS011;43810;50.860;19.226;2022-11-24T19:34:30;116.63;;;41.40;;
58017;SDS011;43810;50.860;19.226;2022-11-24T19:36:56;102.40;;;37.58;;
58017;SDS011;43810;50.860;19.226;2022-11-24T19:39:22;91.03;;;36.13;;
58017;SDS011;43810;50.860;19.226;2022-11-24T19:41:47;96.05;;;37.60;;
58017;SDS011;43810;50.860;19.226;2022-11-24T19:44:13;100.00;;;38.88;;
58017;SDS011;43810;50.860;19.226;2022-11-24T19:46:38;117.70;;;44.55;;
58017;SDS011;43810;50.860;19.226;2022-11-24T19:49:05;111.13;;;41.65;;
58017;SDS011;43810;50.860;19.226;2022-11-24T19:51:36;101.63;;;39.15;;
58017;SDS011;43810;50.860;19.226;2022-11-24T19:54:04;92.03;;;37.25;;
58017;SDS011;43810;50.860;19.226;2022-11-24T19:56:33;116.03;;;41.30;;
58017;SDS011;43810;50.860;19.226;2022-11-24T19:59:00;126.18;;;44.10;;
58017;SDS011;43810;50.860;19.226;2022-11-24T20:01:33;119.28;;;43.75;;
58017;SDS011;43810;50.860;19.226;2022-11-24T20:04:05;126.45;;;47.95;;
58017;SDS011;43810;50.860;19.226;2022-11-24T20:06:33;130.27;;;46.92;;